Aviation Digital Data Service (ADDS)

Output produced by TAFs form (2015 UTC 01 August 2015)
found at http://www.aviationweather.gov/adds/tafs/
 
KAPA 011953Z 00000KT 10SM FEW100 FEW130 FEW220 32/03 A3014 RMK AO2 SLP120 T03220033
KAPA 011726Z 0118/0218 VRB05KT P6SM FEW100 SCT200 
     FM011900 04007KT P6SM FEW090 SCT150 
     FM012300 15010KT P6SM SCT090 BKN140 
     FM020100 15012G18KT P6SM VCSH FEW090 BKN130 
     FM020400 20010KT P6SM FEW140 SCT220 
     FM021500 31008KT P6SM FEW090 SCT150